sensor_id;sensor_type;location;lat;lon;timestamp;P1;durP1;ratioP1;P2;durP2;ratioP2
62915;SDS011;49010;51.230;-2.306;2022-12-07T00:01:25;20.52;;;12.50;;
62915;SDS011;49010;51.230;-2.306;2022-12-07T00:05:11;18.48;;;11.07;;
62915;SDS011;49010;51.230;-2.306;2022-12-07T00:08:53;20.92;;;11.82;;
62915;SDS011;49010;51.230;-2.306;2022-12-07T00:12:35;20.63;;;12.70;;
62915;SDS011;49010;51.230;-2.306;2022-12-07T00:16:17;21.63;;;13.57;;
62915;SDS011;49010;51.230;-2.306;2022-12-07T00:20:01;19.67;;;12.35;;
62915;SDS011;49010;51.230;-2.306;2022-12-07T00:23:44;17.40;;;12.00;;
62915;SDS011;49010;51.230;-2.306;2022-12-07T00:27:27;20.05;;;12.05;;
62915;SDS011;49010;51.230;-2.306;2022-12-07T00:31:09;23.13;;;12.65;;
62915;SDS011;49010;51.230;-2.306;2022-12-07T00:34:53;20.98;;;12.40;;
62915;SDS011;49010;51.230;-2.306;2022-12-07T00:38:35;24.58;;;12.85;;
62915;SDS011;49010;51.230;-2.306;2022-12-07T00:42:18;18.25;;;12.30;;
62915;SDS011;49010;51.230;-2.306;2022-12-07T00:46:00;18.38;;;12.95;;
62915;SDS011;49010;51.230;-2.306;2022-12-07T00:49:42;15.93;;;11.63;;
62915;SDS011;49010;51.230;-2.306;2022-12-07T00:53:23;22.15;;;12.65;;
62915;SDS011;49010;51.230;-2.306;2022-12-07T00:57:06;19.45;;;12.30;;
62915;SDS011;49010;51.230;-2.306;2022-12-07T01:00:50;18.52;;;11.30;;
62915;SDS011;49010;51.230;-2.306;2022-12-07T01:04:33;20.83;;;12.13;;
62915;SDS011;49010;51.230;-2.306;2022-12-07T01:08:15;21.75;;;12.55;;
62915;SDS011;49010;51.230;-2.306;2022-12-07T01:11:57;23.65;;;13.25;;
62915;SDS011;49010;51.230;-2.306;2022-12-07T01:15:40;21.55;;;12.73;;
62915;SDS011;49010;51.230;-2.306;2022-12-07T01:19:22;20.90;;;13.05;;
62915;SDS011;49010;51.230;-2.306;2022-12-07T01:23:04;21.80;;;13.63;;
62915;SDS011;49010;51.230;-2.306;2022-12-07T01:26:48;21.15;;;13.18;;
62915;SDS011;49010;51.230;-2.306;2022-12-07T01:30:31;22.58;;;13.60;;
62915;SDS011;49010;51.230;-2.306;2022-12-07T01:34:12;25.58;;;13.98;;
62915;SDS011;49010;51.230;-2.306;2022-12-07T01:37:54;18.52;;;11.60;;
62915;SDS011;49010;51.230;-2.306;2022-12-07T01:41:38;20.00;;;11.27;;
62915;SDS011;49010;51.230;-2.306;2022-12-07T01:45:33;21.77;;;11.15;;
62915;SDS011;49010;51.230;-2.306;2022-12-07T01:49:42;19.52;;;11.88;;
62915;SDS011;49010;51.230;-2.306;2022-12-07T01:57:11;22.83;;;12.02;;
62915;SDS011;49010;51.230;-2.306;2022-12-07T02:00:55;19.67;;;11.13;;
62915;SDS011;49010;51.230;-2.306;2022-12-07T02:04:37;19.40;;;10.80;;
62915;SDS011;49010;51.230;-2.306;2022-12-07T02:08:19;22.10;;;11.70;;
62915;SDS011;49010;51.230;-2.306;2022-12-07T02:12:01;17.45;;;12.05;;
62915;SDS011;49010;51.230;-2.306;2022-12-07T02:28:19;23.25;;;12.23;;
62915;SDS011;49010;51.230;-2.306;2022-12-07T02:39:51;20.30;;;12.38;;
62915;SDS011;49010;51.230;-2.306;2022-12-07T02:43:50;17.23;;;11.43;;
62915;SDS011;49010;51.230;-2.306;2022-12-07T02:47:35;17.92;;;11.20;;
62915;SDS011;49010;51.230;-2.306;2022-12-07T02:51:18;17.35;;;11.68;;
62915;SDS011;49010;51.230;-2.306;2022-12-07T02:55:00;20.02;;;11.10;;
62915;SDS011;49010;51.230;-2.306;2022-12-07T02:58:51;22.60;;;12.25;;
62915;SDS011;49010;51.230;-2.306;2022-12-07T03:02:48;22.42;;;13.23;;
62915;SDS011;49010;51.230;-2.306;2022-12-07T03:06:42;24.40;;;12.75;;
62915;SDS011;49010;51.230;-2.306;2022-12-07T03:14:53;23.95;;;13.75;;
62915;SDS011;49010;51.230;-2.306;2022-12-07T03:18:49;26.42;;;13.73;;
62915;SDS011;49010;51.230;-2.306;2022-12-07T03:22:35;21.25;;;12.45;;
62915;SDS011;49010;51.230;-2.306;2022-12-07T03:26:21;22.58;;;13.80;;
62915;SDS011;49010;51.230;-2.306;2022-12-07T03:30:08;18.70;;;12.73;;
62915;SDS011;49010;51.230;-2.306;2022-12-07T03:37:49;20.20;;;11.80;;
62915;SDS011;49010;51.230;-2.306;2022-12-07T03:41:35;21.80;;;13.98;;
62915;SDS011;49010;51.230;-2.306;2022-12-07T03:45:28;22.58;;;12.50;;
62915;SDS011;49010;51.230;-2.306;2022-12-07T03:53:30;26.40;;;12.85;;
62915;SDS011;49010;51.230;-2.306;2022-12-07T03:57:19;25.05;;;13.38;;
62915;SDS011;49010;51.230;-2.306;2022-12-07T04:01:03;20.63;;;12.05;;
62915;SDS011;49010;51.230;-2.306;2022-12-07T04:04:45;25.08;;;13.20;;
62915;SDS011;49010;51.230;-2.306;2022-12-07T04:08:27;24.60;;;12.48;;
62915;SDS011;49010;51.230;-2.306;2022-12-07T04:12:09;22.30;;;13.70;;
62915;SDS011;49010;51.230;-2.306;2022-12-07T04:15:50;22.73;;;12.93;;
62915;SDS011;49010;51.230;-2.306;2022-12-07T04:19:33;23.15;;;11.70;;
62915;SDS011;49010;51.230;-2.306;2022-12-07T04:23:15;25.15;;;13.95;;
62915;SDS011;49010;51.230;-2.306;2022-12-07T04:26:57;17.73;;;11.25;;
62915;SDS011;49010;51.230;-2.306;2022-12-07T04:30:38;19.73;;;11.68;;
62915;SDS011;49010;51.230;-2.306;2022-12-07T04:34:20;21.83;;;12.60;;
62915;SDS011;49010;51.230;-2.306;2022-12-07T04:38:02;21.15;;;13.30;;
62915;SDS011;49010;51.230;-2.306;2022-12-07T04:41:44;25.35;;;12.75;;
62915;SDS011;49010;51.230;-2.306;2022-12-07T04:45:26;21.10;;;11.68;;
62915;SDS011;49010;51.230;-2.306;2022-12-07T04:49:08;19.60;;;11.73;;
62915;SDS011;49010;51.230;-2.306;2022-12-07T04:52:50;24.17;;;13.05;;
62915;SDS011;49010;51.230;-2.306;2022-12-07T04:56:32;21.95;;;12.82;;
62915;SDS011;49010;51.230;-2.306;2022-12-07T05:00:16;24.05;;;12.68;;
62915;SDS011;49010;51.230;-2.306;2022-12-07T05:03:58;20.95;;;12.70;;
62915;SDS011;49010;51.230;-2.306;2022-12-07T05:07:40;20.98;;;12.18;;
62915;SDS011;49010;51.230;-2.306;2022-12-07T05:11:22;23.55;;;12.88;;
62915;SDS011;49010;51.230;-2.306;2022-12-07T05:15:19;19.80;;;11.98;;
62915;SDS011;49010;51.230;-2.306;2022-12-07T05:19:00;22.08;;;13.55;;
62915;SDS011;49010;51.230;-2.306;2022-12-07T05:22:42;19.98;;;11.60;;
62915;SDS011;49010;51.230;-2.306;2022-12-07T05:26:24;19.58;;;12.00;;
62915;SDS011;49010;51.230;-2.306;2022-12-07T05:30:06;21.70;;;10.95;;
62915;SDS011;49010;51.230;-2.306;2022-12-07T05:33:48;18.83;;;11.57;;
62915;SDS011;49010;51.230;-2.306;2022-12-07T05:37:30;23.65;;;11.50;;
62915;SDS011;49010;51.230;-2.306;2022-12-07T05:41:13;20.80;;;11.27;;
62915;SDS011;49010;51.230;-2.306;2022-12-07T05:45:15;25.42;;;11.50;;
62915;SDS011;49010;51.230;-2.306;2022-12-07T05:48:57;19.27;;;12.20;;
62915;SDS011;49010;51.230;-2.306;2022-12-07T05:52:39;23.27;;;12.30;;
62915;SDS011;49010;51.230;-2.306;2022-12-07T05:56:20;21.88;;;12.25;;
62915;SDS011;49010;51.230;-2.306;2022-12-07T06:00:03;25.27;;;12.93;;
62915;SDS011;49010;51.230;-2.306;2022-12-07T06:03:46;20.25;;;10.50;;
62915;SDS011;49010;51.230;-2.306;2022-12-07T06:07:27;21.88;;;12.05;;
62915;SDS011;49010;51.230;-2.306;2022-12-07T06:11:09;20.35;;;11.32;;
62915;SDS011;49010;51.230;-2.306;2022-12-07T06:15:10;23.77;;;11.50;;
62915;SDS011;49010;51.230;-2.306;2022-12-07T06:18:54;24.13;;;10.40;;
62915;SDS011;49010;51.230;-2.306;2022-12-07T06:22:36;23.08;;;11.70;;
62915;SDS011;49010;51.230;-2.306;2022-12-07T06:26:17;18.83;;;11.50;;
62915;SDS011;49010;51.230;-2.306;2022-12-07T06:29:59;19.88;;;11.57;;
62915;SDS011;49010;51.230;-2.306;2022-12-07T06:33:46;19.50;;;10.73;;
62915;SDS011;49010;51.230;-2.306;2022-12-07T06:37:28;17.67;;;9.63;;
62915;SDS011;49010;51.230;-2.306;2022-12-07T06:41:10;22.92;;;13.27;;
62915;SDS011;49010;51.230;-2.306;2022-12-07T06:44:51;22.83;;;12.85;;
62915;SDS011;49010;51.230;-2.306;2022-12-07T06:48:33;21.60;;;11.52;;
62915;SDS011;49010;51.230;-2.306;2022-12-07T06:52:15;20.13;;;10.43;;
62915;SDS011;49010;51.230;-2.306;2022-12-07T06:55:57;23.13;;;12.90;;
62915;SDS011;49010;51.230;-2.306;2022-12-07T06:59:38;20.38;;;10.65;;
62915;SDS011;49010;51.230;-2.306;2022-12-07T07:03:20;22.73;;;12.15;;
62915;SDS011;49010;51.230;-2.306;2022-12-07T07:07:02;19.35;;;10.98;;
62915;SDS011;49010;51.230;-2.306;2022-12-07T07:10:44;22.00;;;11.65;;
62915;SDS011;49010;51.230;-2.306;2022-12-07T07:14:26;17.65;;;10.02;;
62915;SDS011;49010;51.230;-2.306;2022-12-07T07:18:07;22.50;;;11.93;;
62915;SDS011;49010;51.230;-2.306;2022-12-07T07:21:49;20.80;;;11.00;;
62915;SDS011;49010;51.230;-2.306;2022-12-07T07:25:31;21.00;;;11.23;;
62915;SDS011;49010;51.230;-2.306;2022-12-07T07:29:13;22.65;;;11.27;;
62915;SDS011;49010;51.230;-2.306;2022-12-07T07:32:58;21.42;;;12.63;;
62915;SDS011;49010;51.230;-2.306;2022-12-07T07:36:44;22.15;;;11.60;;
62915;SDS011;49010;51.230;-2.306;2022-12-07T07:40:26;19.58;;;9.70;;
62915;SDS011;49010;51.230;-2.306;2022-12-07T07:44:10;24.27;;;10.80;;
62915;SDS011;49010;51.230;-2.306;2022-12-07T07:47:52;23.42;;;10.68;;
62915;SDS011;49010;51.230;-2.306;2022-12-07T07:51:34;23.33;;;11.90;;
62915;SDS011;49010;51.230;-2.306;2022-12-07T07:55:16;23.73;;;11.88;;
62915;SDS011;49010;51.230;-2.306;2022-12-07T07:58:58;30.38;;;11.38;;
62915;SDS011;49010;51.230;-2.306;2022-12-07T08:02:40;21.17;;;12.57;;
62915;SDS011;49010;51.230;-2.306;2022-12-07T08:06:24;19.20;;;10.60;;
62915;SDS011;49010;51.230;-2.306;2022-12-07T08:10:12;22.10;;;11.90;;
62915;SDS011;49010;51.230;-2.306;2022-12-07T08:13:54;22.95;;;11.07;;
62915;SDS011;49010;51.230;-2.306;2022-12-07T08:17:36;20.13;;;10.20;;
62915;SDS011;49010;51.230;-2.306;2022-12-07T08:21:18;25.77;;;12.65;;
62915;SDS011;49010;51.230;-2.306;2022-12-07T08:25:00;22.88;;;12.27;;
62915;SDS011;49010;51.230;-2.306;2022-12-07T08:28:41;21.88;;;12.27;;
62915;SDS011;49010;51.230;-2.306;2022-12-07T08:32:23;25.15;;;12.35;;
62915;SDS011;49010;51.230;-2.306;2022-12-07T08:36:06;20.33;;;11.60;;
62915;SDS011;49010;51.230;-2.306;2022-12-07T08:39:50;20.33;;;12.98;;
62915;SDS011;49010;51.230;-2.306;2022-12-07T08:43:32;18.52;;;11.13;;
62915;SDS011;49010;51.230;-2.306;2022-12-07T08:47:14;24.77;;;11.75;;
62915;SDS011;49010;51.230;-2.306;2022-12-07T08:50:56;25.27;;;12.48;;
62915;SDS011;49010;51.230;-2.306;2022-12-07T08:54:39;18.83;;;10.90;;
62915;SDS011;49010;51.230;-2.306;2022-12-07T08:58:22;21.40;;;13.63;;
62915;SDS011;49010;51.230;-2.306;2022-12-07T09:02:05;25.58;;;15.88;;
62915;SDS011;49010;51.230;-2.306;2022-12-07T09:05:47;29.10;;;14.35;;
62915;SDS011;49010;51.230;-2.306;2022-12-07T09:09:29;23.60;;;13.80;;
62915;SDS011;49010;51.230;-2.306;2022-12-07T09:13:11;27.92;;;14.88;;
62915;SDS011;49010;51.230;-2.306;2022-12-07T09:16:53;29.25;;;14.70;;
62915;SDS011;49010;51.230;-2.306;2022-12-07T09:20:34;31.45;;;16.10;;
62915;SDS011;49010;51.230;-2.306;2022-12-07T09:24:16;31.92;;;14.75;;
62915;SDS011;49010;51.230;-2.306;2022-12-07T09:27:58;28.13;;;12.60;;
62915;SDS011;49010;51.230;-2.306;2022-12-07T09:31:40;35.13;;;14.35;;
62915;SDS011;49010;51.230;-2.306;2022-12-07T09:35:22;34.65;;;15.80;;
62915;SDS011;49010;51.230;-2.306;2022-12-07T09:39:04;28.90;;;15.68;;
62915;SDS011;49010;51.230;-2.306;2022-12-07T09:42:47;38.78;;;18.05;;
62915;SDS011;49010;51.230;-2.306;2022-12-07T09:46:36;35.88;;;16.55;;
62915;SDS011;49010;51.230;-2.306;2022-12-07T09:54:04;24.35;;;13.45;;
62915;SDS011;49010;51.230;-2.306;2022-12-07T09:57:46;27.80;;;13.68;;
62915;SDS011;49010;51.230;-2.306;2022-12-07T10:01:29;24.73;;;13.40;;
62915;SDS011;49010;51.230;-2.306;2022-12-07T10:05:55;25.27;;;12.75;;
62915;SDS011;49010;51.230;-2.306;2022-12-07T10:09:29;25.83;;;13.68;;
62915;SDS011;49010;51.230;-2.306;2022-12-07T10:13:37;22.25;;;13.30;;
62915;SDS011;49010;51.230;-2.306;2022-12-07T10:21:18;29.30;;;15.05;;
62915;SDS011;49010;51.230;-2.306;2022-12-07T10:25:08;22.65;;;13.30;;
62915;SDS011;49010;51.230;-2.306;2022-12-07T10:28:58;21.63;;;13.47;;
62915;SDS011;49010;51.230;-2.306;2022-12-07T10:32:42;25.48;;;13.63;;
62915;SDS011;49010;51.230;-2.306;2022-12-07T10:36:27;20.60;;;12.43;;
62915;SDS011;49010;51.230;-2.306;2022-12-07T10:40:32;20.50;;;12.48;;
62915;SDS011;49010;51.230;-2.306;2022-12-07T10:44:20;18.38;;;11.40;;
62915;SDS011;49010;51.230;-2.306;2022-12-07T10:48:07;15.55;;;10.98;;
62915;SDS011;49010;51.230;-2.306;2022-12-07T11:07:43;11.48;;;5.78;;
62915;SDS011;49010;51.230;-2.306;2022-12-07T11:16:02;10.45;;;4.75;;
62915;SDS011;49010;51.230;-2.306;2022-12-07T11:24:30;9.75;;;4.53;;
62915;SDS011;49010;51.230;-2.306;2022-12-07T11:40:35;8.38;;;4.95;;
62915;SDS011;49010;51.230;-2.306;2022-12-07T11:44:36;7.65;;;4.43;;
62915;SDS011;49010;51.230;-2.306;2022-12-07T11:56:28;12.07;;;5.55;;
62915;SDS011;49010;51.230;-2.306;2022-12-07T12:00:18;10.98;;;5.40;;
62915;SDS011;49010;51.230;-2.306;2022-12-07T12:21:09;8.75;;;4.30;;
62915;SDS011;49010;51.230;-2.306;2022-12-07T12:25:00;12.05;;;5.30;;
62915;SDS011;49010;51.230;-2.306;2022-12-07T12:29:02;9.82;;;4.78;;
62915;SDS011;49010;51.230;-2.306;2022-12-07T12:33:43;13.30;;;5.47;;
62915;SDS011;49010;51.230;-2.306;2022-12-07T12:37:26;9.65;;;4.57;;
62915;SDS011;49010;51.230;-2.306;2022-12-07T12:45:40;14.77;;;5.55;;
62915;SDS011;49010;51.230;-2.306;2022-12-07T12:57:25;9.80;;;4.82;;
62915;SDS011;49010;51.230;-2.306;2022-12-07T13:01:55;10.70;;;4.32;;
62915;SDS011;49010;51.230;-2.306;2022-12-07T13:05:21;10.25;;;4.80;;
62915;SDS011;49010;51.230;-2.306;2022-12-07T13:09:04;13.75;;;5.53;;
62915;SDS011;49010;51.230;-2.306;2022-12-07T13:17:00;12.43;;;5.07;;
62915;SDS011;49010;51.230;-2.306;2022-12-07T13:24:30;10.02;;;5.18;;
62915;SDS011;49010;51.230;-2.306;2022-12-07T13:28:15;16.70;;;5.20;;
62915;SDS011;49010;51.230;-2.306;2022-12-07T13:32:01;12.02;;;5.03;;
62915;SDS011;49010;51.230;-2.306;2022-12-07T13:35:43;10.18;;;4.63;;
62915;SDS011;49010;51.230;-2.306;2022-12-07T13:39:25;10.20;;;4.80;;
62915;SDS011;49010;51.230;-2.306;2022-12-07T13:43:13;10.18;;;4.88;;
62915;SDS011;49010;51.230;-2.306;2022-12-07T13:47:06;10.95;;;4.53;;
62915;SDS011;49010;51.230;-2.306;2022-12-07T13:50:57;9.50;;;4.80;;
62915;SDS011;49010;51.230;-2.306;2022-12-07T13:54:43;9.65;;;4.00;;
62915;SDS011;49010;51.230;-2.306;2022-12-07T13:58:46;10.57;;;4.03;;
62915;SDS011;49010;51.230;-2.306;2022-12-07T14:02:32;10.05;;;4.35;;
62915;SDS011;49010;51.230;-2.306;2022-12-07T14:06:27;5.00;;;3.30;;
62915;SDS011;49010;51.230;-2.306;2022-12-07T14:10:23;7.25;;;3.38;;
62915;SDS011;49010;51.230;-2.306;2022-12-07T14:14:10;8.90;;;3.90;;
62915;SDS011;49010;51.230;-2.306;2022-12-07T14:18:00;8.05;;;4.25;;
62915;SDS011;49010;51.230;-2.306;2022-12-07T14:21:45;8.82;;;3.95;;
62915;SDS011;49010;51.230;-2.306;2022-12-07T14:25:27;8.43;;;4.05;;
62915;SDS011;49010;51.230;-2.306;2022-12-07T14:29:29;11.73;;;4.22;;
62915;SDS011;49010;51.230;-2.306;2022-12-07T14:33:13;12.15;;;4.85;;
62915;SDS011;49010;51.230;-2.306;2022-12-07T14:36:55;11.50;;;4.00;;
62915;SDS011;49010;51.230;-2.306;2022-12-07T14:40:37;10.90;;;3.85;;
62915;SDS011;49010;51.230;-2.306;2022-12-07T14:44:21;9.52;;;4.63;;
62915;SDS011;49010;51.230;-2.306;2022-12-07T14:48:13;8.98;;;3.95;;
62915;SDS011;49010;51.230;-2.306;2022-12-07T14:52:17;12.20;;;4.00;;
62915;SDS011;49010;51.230;-2.306;2022-12-07T14:56:24;6.80;;;3.60;;
62915;SDS011;49010;51.230;-2.306;2022-12-07T15:00:06;10.93;;;5.00;;
62915;SDS011;49010;51.230;-2.306;2022-12-07T15:03:50;8.95;;;3.92;;
62915;SDS011;49010;51.230;-2.306;2022-12-07T15:07:31;8.23;;;3.28;;
62915;SDS011;49010;51.230;-2.306;2022-12-07T15:11:14;9.30;;;3.78;;
62915;SDS011;49010;51.230;-2.306;2022-12-07T15:14:57;6.88;;;3.83;;
62915;SDS011;49010;51.230;-2.306;2022-12-07T15:18:39;10.25;;;4.55;;
62915;SDS011;49010;51.230;-2.306;2022-12-07T15:22:38;7.65;;;4.00;;
62915;SDS011;49010;51.230;-2.306;2022-12-07T15:26:20;13.43;;;4.80;;
62915;SDS011;49010;51.230;-2.306;2022-12-07T15:30:02;10.15;;;4.38;;
62915;SDS011;49010;51.230;-2.306;2022-12-07T15:33:44;7.60;;;4.30;;
62915;SDS011;49010;51.230;-2.306;2022-12-07T15:37:26;6.45;;;3.83;;
62915;SDS011;49010;51.230;-2.306;2022-12-07T15:41:08;9.80;;;3.85;;
62915;SDS011;49010;51.230;-2.306;2022-12-07T15:44:50;5.75;;;3.53;;
62915;SDS011;49010;51.230;-2.306;2022-12-07T15:48:48;11.63;;;4.70;;
62915;SDS011;49010;51.230;-2.306;2022-12-07T15:52:30;10.85;;;3.90;;
62915;SDS011;49010;51.230;-2.306;2022-12-07T15:56:11;11.05;;;4.75;;
62915;SDS011;49010;51.230;-2.306;2022-12-07T15:59:53;10.02;;;4.80;;
62915;SDS011;49010;51.230;-2.306;2022-12-07T16:03:35;8.60;;;4.57;;
62915;SDS011;49010;51.230;-2.306;2022-12-07T16:07:17;9.38;;;4.40;;
62915;SDS011;49010;51.230;-2.306;2022-12-07T16:10:59;10.07;;;4.22;;
62915;SDS011;49010;51.230;-2.306;2022-12-07T16:14:45;12.20;;;4.75;;
62915;SDS011;49010;51.230;-2.306;2022-12-07T16:18:27;9.43;;;3.95;;
62915;SDS011;49010;51.230;-2.306;2022-12-07T16:22:08;8.38;;;4.40;;
62915;SDS011;49010;51.230;-2.306;2022-12-07T16:25:50;7.93;;;5.10;;
62915;SDS011;49010;51.230;-2.306;2022-12-07T16:29:32;7.38;;;3.60;;
62915;SDS011;49010;51.230;-2.306;2022-12-07T16:33:14;7.43;;;3.70;;
62915;SDS011;49010;51.230;-2.306;2022-12-07T16:36:55;13.57;;;4.88;;
62915;SDS011;49010;51.230;-2.306;2022-12-07T16:40:46;14.57;;;5.75;;
62915;SDS011;49010;51.230;-2.306;2022-12-07T16:44:28;30.75;;;12.40;;
62915;SDS011;49010;51.230;-2.306;2022-12-07T16:48:11;24.92;;;11.27;;
62915;SDS011;49010;51.230;-2.306;2022-12-07T16:51:54;29.60;;;12.90;;
62915;SDS011;49010;51.230;-2.306;2022-12-07T16:55:56;29.48;;;12.35;;
62915;SDS011;49010;51.230;-2.306;2022-12-07T16:59:38;22.52;;;10.00;;
62915;SDS011;49010;51.230;-2.306;2022-12-07T17:03:19;21.83;;;8.23;;
62915;SDS011;49010;51.230;-2.306;2022-12-07T17:07:02;17.02;;;8.55;;
62915;SDS011;49010;51.230;-2.306;2022-12-07T17:10:43;13.18;;;5.88;;
62915;SDS011;49010;51.230;-2.306;2022-12-07T17:14:26;11.00;;;6.10;;
62915;SDS011;49010;51.230;-2.306;2022-12-07T17:18:27;11.23;;;5.00;;
62915;SDS011;49010;51.230;-2.306;2022-12-07T17:22:09;9.75;;;5.43;;
62915;SDS011;49010;51.230;-2.306;2022-12-07T17:25:53;11.27;;;4.82;;
62915;SDS011;49010;51.230;-2.306;2022-12-07T17:29:35;13.02;;;5.47;;
62915;SDS011;49010;51.230;-2.306;2022-12-07T17:33:18;19.90;;;7.47;;
62915;SDS011;49010;51.230;-2.306;2022-12-07T17:37:01;10.57;;;5.72;;
62915;SDS011;49010;51.230;-2.306;2022-12-07T17:40:43;12.75;;;6.20;;
62915;SDS011;49010;51.230;-2.306;2022-12-07T17:44:26;15.38;;;7.00;;
62915;SDS011;49010;51.230;-2.306;2022-12-07T17:48:08;13.00;;;6.90;;
62915;SDS011;49010;51.230;-2.306;2022-12-07T17:51:50;12.70;;;6.60;;
62915;SDS011;49010;51.230;-2.306;2022-12-07T17:55:53;14.05;;;7.95;;
62915;SDS011;49010;51.230;-2.306;2022-12-07T17:59:56;11.85;;;6.43;;
62915;SDS011;49010;51.230;-2.306;2022-12-07T18:03:38;9.85;;;7.60;;
62915;SDS011;49010;51.230;-2.306;2022-12-07T18:07:20;14.85;;;7.75;;
62915;SDS011;49010;51.230;-2.306;2022-12-07T18:11:02;15.95;;;8.68;;
62915;SDS011;49010;51.230;-2.306;2022-12-07T18:14:45;15.35;;;7.47;;
62915;SDS011;49010;51.230;-2.306;2022-12-07T18:18:27;14.90;;;6.95;;
62915;SDS011;49010;51.230;-2.306;2022-12-07T18:22:09;14.18;;;10.20;;
62915;SDS011;49010;51.230;-2.306;2022-12-07T18:25:51;19.25;;;12.40;;
62915;SDS011;49010;51.230;-2.306;2022-12-07T18:29:33;16.00;;;10.60;;
62915;SDS011;49010;51.230;-2.306;2022-12-07T18:33:17;14.93;;;8.00;;
62915;SDS011;49010;51.230;-2.306;2022-12-07T18:37:00;20.92;;;8.07;;
62915;SDS011;49010;51.230;-2.306;2022-12-07T18:40:42;14.13;;;7.70;;
62915;SDS011;49010;51.230;-2.306;2022-12-07T18:44:24;16.15;;;7.70;;
62915;SDS011;49010;51.230;-2.306;2022-12-07T18:48:06;21.20;;;9.50;;
62915;SDS011;49010;51.230;-2.306;2022-12-07T18:51:48;26.15;;;9.73;;
62915;SDS011;49010;51.230;-2.306;2022-12-07T18:55:31;29.63;;;13.13;;
62915;SDS011;49010;51.230;-2.306;2022-12-07T18:59:13;23.25;;;11.73;;
62915;SDS011;49010;51.230;-2.306;2022-12-07T19:03:13;18.85;;;7.68;;
62915;SDS011;49010;51.230;-2.306;2022-12-07T19:06:55;16.23;;;7.07;;
62915;SDS011;49010;51.230;-2.306;2022-12-07T19:10:37;11.23;;;5.63;;
62915;SDS011;49010;51.230;-2.306;2022-12-07T19:14:26;12.35;;;7.40;;
62915;SDS011;49010;51.230;-2.306;2022-12-07T19:18:09;12.30;;;6.75;;
62915;SDS011;49010;51.230;-2.306;2022-12-07T19:21:51;11.80;;;6.47;;
62915;SDS011;49010;51.230;-2.306;2022-12-07T19:25:33;14.38;;;8.25;;
62915;SDS011;49010;51.230;-2.306;2022-12-07T19:29:15;15.63;;;8.35;;
62915;SDS011;49010;51.230;-2.306;2022-12-07T19:32:56;13.73;;;8.27;;
62915;SDS011;49010;51.230;-2.306;2022-12-07T19:36:38;21.73;;;8.32;;
62915;SDS011;49010;51.230;-2.306;2022-12-07T19:40:20;16.08;;;8.50;;
62915;SDS011;49010;51.230;-2.306;2022-12-07T19:44:03;18.23;;;8.52;;
62915;SDS011;49010;51.230;-2.306;2022-12-07T19:47:46;17.75;;;8.85;;
62915;SDS011;49010;51.230;-2.306;2022-12-07T19:51:28;21.75;;;9.02;;
62915;SDS011;49010;51.230;-2.306;2022-12-07T19:55:10;16.48;;;8.40;;
62915;SDS011;49010;51.230;-2.306;2022-12-07T19:58:52;14.75;;;8.48;;
62915;SDS011;49010;51.230;-2.306;2022-12-07T20:02:38;14.77;;;8.30;;
62915;SDS011;49010;51.230;-2.306;2022-12-07T20:06:22;17.38;;;9.07;;
62915;SDS011;49010;51.230;-2.306;2022-12-07T20:10:05;16.92;;;8.68;;
62915;SDS011;49010;51.230;-2.306;2022-12-07T20:13:48;14.27;;;8.82;;
62915;SDS011;49010;51.230;-2.306;2022-12-07T20:17:29;11.90;;;7.82;;
62915;SDS011;49010;51.230;-2.306;2022-12-07T20:21:11;16.08;;;8.45;;
62915;SDS011;49010;51.230;-2.306;2022-12-07T20:24:53;19.55;;;8.07;;
62915;SDS011;49010;51.230;-2.306;2022-12-07T20:28:35;15.15;;;8.65;;
62915;SDS011;49010;51.230;-2.306;2022-12-07T20:32:17;15.30;;;9.00;;
62915;SDS011;49010;51.230;-2.306;2022-12-07T20:36:00;11.88;;;8.02;;
62915;SDS011;49010;51.230;-2.306;2022-12-07T20:39:43;19.88;;;10.07;;
62915;SDS011;49010;51.230;-2.306;2022-12-07T20:43:25;17.67;;;9.13;;
62915;SDS011;49010;51.230;-2.306;2022-12-07T20:47:07;15.80;;;9.38;;
62915;SDS011;49010;51.230;-2.306;2022-12-07T20:50:49;16.25;;;7.22;;
62915;SDS011;49010;51.230;-2.306;2022-12-07T20:54:34;15.45;;;8.27;;
62915;SDS011;49010;51.230;-2.306;2022-12-07T20:58:20;14.07;;;8.10;;
62915;SDS011;49010;51.230;-2.306;2022-12-07T21:02:01;18.73;;;9.95;;
62915;SDS011;49010;51.230;-2.306;2022-12-07T21:05:43;17.40;;;8.75;;
62915;SDS011;49010;51.230;-2.306;2022-12-07T21:09:31;18.55;;;7.85;;
62915;SDS011;49010;51.230;-2.306;2022-12-07T21:13:13;17.00;;;7.90;;
62915;SDS011;49010;51.230;-2.306;2022-12-07T21:16:54;13.20;;;7.63;;
62915;SDS011;49010;51.230;-2.306;2022-12-07T21:20:39;16.30;;;8.40;;
62915;SDS011;49010;51.230;-2.306;2022-12-07T21:24:21;15.05;;;8.70;;
62915;SDS011;49010;51.230;-2.306;2022-12-07T21:28:03;15.93;;;9.43;;
62915;SDS011;49010;51.230;-2.306;2022-12-07T21:31:44;11.85;;;7.45;;
62915;SDS011;49010;51.230;-2.306;2022-12-07T21:35:26;14.35;;;7.68;;
62915;SDS011;49010;51.230;-2.306;2022-12-07T21:39:08;16.38;;;7.63;;
62915;SDS011;49010;51.230;-2.306;2022-12-07T21:42:53;15.48;;;8.55;;
62915;SDS011;49010;51.230;-2.306;2022-12-07T21:46:35;14.80;;;8.18;;
62915;SDS011;49010;51.230;-2.306;2022-12-07T21:50:18;12.98;;;8.07;;
62915;SDS011;49010;51.230;-2.306;2022-12-07T21:54:01;14.48;;;8.48;;
62915;SDS011;49010;51.230;-2.306;2022-12-07T21:57:44;19.55;;;8.65;;
62915;SDS011;49010;51.230;-2.306;2022-12-07T22:01:26;20.27;;;9.35;;
62915;SDS011;49010;51.230;-2.306;2022-12-07T22:05:10;15.23;;;8.27;;
62915;SDS011;49010;51.230;-2.306;2022-12-07T22:08:52;14.57;;;7.70;;
62915;SDS011;49010;51.230;-2.306;2022-12-07T22:12:36;11.52;;;7.55;;
62915;SDS011;49010;51.230;-2.306;2022-12-07T22:16:17;13.05;;;8.70;;
62915;SDS011;49010;51.230;-2.306;2022-12-07T22:20:00;13.25;;;7.80;;
62915;SDS011;49010;51.230;-2.306;2022-12-07T22:23:42;14.10;;;7.85;;
62915;SDS011;49010;51.230;-2.306;2022-12-07T22:27:23;15.30;;;7.70;;
62915;SDS011;49010;51.230;-2.306;2022-12-07T22:31:06;15.88;;;7.68;;
62915;SDS011;49010;51.230;-2.306;2022-12-07T22:34:49;14.50;;;7.97;;
62915;SDS011;49010;51.230;-2.306;2022-12-07T22:38:31;14.07;;;9.18;;
62915;SDS011;49010;51.230;-2.306;2022-12-07T22:42:13;14.52;;;8.75;;
62915;SDS011;49010;51.230;-2.306;2022-12-07T22:45:55;15.23;;;9.13;;
62915;SDS011;49010;51.230;-2.306;2022-12-07T22:49:38;16.30;;;7.82;;
62915;SDS011;49010;51.230;-2.306;2022-12-07T22:53:20;14.55;;;7.50;;
62915;SDS011;49010;51.230;-2.306;2022-12-07T22:57:03;15.80;;;8.05;;
62915;SDS011;49010;51.230;-2.306;2022-12-07T23:00:45;14.15;;;7.85;;
62915;SDS011;49010;51.230;-2.306;2022-12-07T23:04:27;14.38;;;8.02;;
62915;SDS011;49010;51.230;-2.306;2022-12-07T23:08:09;14.13;;;7.95;;
62915;SDS011;49010;51.230;-2.306;2022-12-07T23:11:51;14.00;;;9.77;;
62915;SDS011;49010;51.230;-2.306;2022-12-07T23:15:51;13.30;;;7.78;;
62915;SDS011;49010;51.230;-2.306;2022-12-07T23:19:33;13.80;;;7.50;;
62915;SDS011;49010;51.230;-2.306;2022-12-07T23:23:15;13.73;;;8.32;;
62915;SDS011;49010;51.230;-2.306;2022-12-07T23:26:57;14.38;;;8.00;;
62915;SDS011;49010;51.230;-2.306;2022-12-07T23:30:39;15.90;;;7.38;;
62915;SDS011;49010;51.230;-2.306;2022-12-07T23:34:21;16.05;;;7.82;;
62915;SDS011;49010;51.230;-2.306;2022-12-07T23:38:03;14.50;;;8.13;;
62915;SDS011;49010;51.230;-2.306;2022-12-07T23:41:45;15.52;;;8.32;;
62915;SDS011;49010;51.230;-2.306;2022-12-07T23:45:26;13.75;;;8.32;;
62915;SDS011;49010;51.230;-2.306;2022-12-07T23:49:09;16.33;;;8.13;;
62915;SDS011;49010;51.230;-2.306;2022-12-07T23:52:53;15.98;;;9.00;;